createdAt,value
2019-03-15T00:01:39.968Z,99770.20
2019-03-15T00:05:45.276Z,99796.37
2019-03-15T00:09:50.482Z,99805.63
2019-03-15T00:13:55.679Z,99812.84
2019-03-15T00:18:01.877Z,99814.26
2019-03-15T00:22:07.075Z,99807.51
2019-03-15T00:26:12.205Z,99810.52
2019-03-15T00:30:17.315Z,99817.45
2019-03-15T00:34:22.435Z,99807.31
2019-03-15T00:38:27.577Z,99827.48
2019-03-15T00:42:32.680Z,99826.27
2019-03-15T00:46:37.853Z,99828.70
2019-03-15T00:50:42.966Z,99830.77
2019-03-15T00:54:48.150Z,99835.14
2019-03-15T00:58:53.242Z,99844.52
2019-03-15T01:02:58.346Z,99838.52
2019-03-15T01:07:03.464Z,99841.70
2019-03-15T01:11:08.651Z,99838.80
2019-03-15T01:15:14.062Z,99831.48
2019-03-15T01:19:19.690Z,99825.83
2019-03-15T01:23:24.888Z,99827.98
2019-03-15T01:27:30.982Z,99828.36
2019-03-15T01:31:36.093Z,99828.07
2019-03-15T01:35:41.326Z,99837.34
2019-03-15T01:39:46.793Z,99837.34
2019-03-15T01:43:51.898Z,99834.16
2019-03-15T01:47:59.646Z,99823.72
2019-03-15T01:52:04.773Z,99811.16
2019-03-15T01:56:09.967Z,99812.98
2019-03-15T02:00:15.059Z,99805.48
2019-03-15T02:04:20.159Z,99795.60
2019-03-15T02:08:25.302Z,99791.23
2019-03-15T02:12:30.472Z,99792.83
2019-03-15T02:16:35.794Z,99782.05
2019-03-15T02:20:40.896Z,99787.30
2019-03-15T02:24:45.995Z,99779.99
2019-03-15T02:28:51.163Z,99780.09
2019-03-15T02:32:56.307Z,99763.56
2019-03-15T02:37:01.481Z,99758.88
2019-03-15T02:41:06.596Z,99759.28
2019-03-15T02:45:11.758Z,99762.56
2019-03-15T02:49:17.512Z,99758.91
2019-03-15T02:53:22.645Z,99745.69
2019-03-15T02:57:27.844Z,99740.16
2019-03-15T03:01:34.258Z,99748.03
2019-03-15T03:05:40.513Z,99737.62
2019-03-15T03:09:45.704Z,99729.94
2019-03-15T03:13:50.829Z,99744.94
2019-03-15T03:17:55.959Z,99730.44
2019-03-15T03:22:01.209Z,99713.38
2019-03-15T03:26:07.257Z,99717.88
2019-03-15T03:30:17.166Z,99707.01
2019-03-15T03:34:22.259Z,99713.00
2019-03-15T03:38:27.441Z,99716.64
2019-03-15T03:42:32.659Z,99710.84
2019-03-15T03:46:37.963Z,99704.95
2019-03-15T03:50:43.517Z,99703.33
2019-03-15T03:54:49.138Z,99705.98
2019-03-15T03:58:54.266Z,99686.92
2019-03-15T04:02:59.473Z,99688.62
2019-03-15T04:07:04.796Z,99674.18
2019-03-15T04:11:09.873Z,99682.16
2019-03-15T04:15:14.968Z,99678.12
2019-03-15T04:19:20.081Z,99676.80
2019-03-15T04:23:25.242Z,99665.91
2019-03-15T04:27:30.642Z,99685.23
2019-03-15T04:31:35.705Z,99685.34
2019-03-15T04:35:40.947Z,99676.42
2019-03-15T04:39:46.056Z,99674.38
2019-03-15T04:43:51.205Z,99688.99
2019-03-15T04:47:56.486Z,99675.88
2019-03-15T04:52:01.647Z,99661.08
2019-03-15T04:56:06.808Z,99656.36
2019-03-15T05:00:13.028Z,99656.74
2019-03-15T05:04:18.224Z,99656.38
2019-03-15T05:08:23.625Z,99646.22
2019-03-15T05:12:28.949Z,99625.81
2019-03-15T05:16:34.026Z,99625.81
2019-03-15T05:20:39.250Z,99633.67
2019-03-15T05:24:45.432Z,99634.06
2019-03-15T05:28:50.575Z,99621.39
2019-03-15T05:32:55.821Z,99618.59
2019-03-15T05:37:00.945Z,99622.61
2019-03-15T05:41:06.083Z,99624.22
2019-03-15T05:45:11.183Z,99610.74
2019-03-15T05:49:16.427Z,99622.09
2019-03-15T05:53:21.562Z,99620.11
2019-03-15T05:57:26.740Z,99612.16
2019-03-15T06:01:31.950Z,99587.80
2019-03-15T06:05:37.164Z,99593.69
2019-03-15T06:09:42.617Z,99596.24
2019-03-15T06:13:48.785Z,99585.75
2019-03-15T06:17:55.770Z,99568.42
2019-03-15T06:22:00.946Z,99563.44
2019-03-15T06:26:06.076Z,99557.84
2019-03-15T06:30:11.447Z,99558.78
2019-03-15T06:34:16.546Z,99551.55
2019-03-15T06:38:22.257Z,99545.56
2019-03-15T06:42:27.455Z,99540.12
2019-03-15T06:46:32.658Z,99523.15
2019-03-15T06:50:37.818Z,99517.36
2019-03-15T06:54:43.977Z,99516.22
2019-03-15T06:58:49.084Z,99509.56
2019-03-15T07:02:54.338Z,99506.84
2019-03-15T07:06:59.473Z,99504.52
2019-03-15T07:11:05.522Z,99498.33
2019-03-15T07:15:10.801Z,99495.30
2019-03-15T07:19:25.447Z,99486.05
2019-03-15T07:23:22.891Z,99484.55
2019-03-15T07:27:28.090Z,99471.96
2019-03-15T07:31:33.312Z,99466.68
2019-03-15T07:35:38.467Z,99461.36
2019-03-15T07:39:44.863Z,99449.88
2019-03-15T07:43:49.976Z,99461.11
2019-03-15T07:47:56.974Z,99440.75
2019-03-15T07:52:04.008Z,99443.02
2019-03-15T07:56:08.897Z,99438.56
2019-03-15T08:00:14.100Z,99447.13
2019-03-15T08:04:21.797Z,99439.77
2019-03-15T08:08:27.033Z,99437.42
2019-03-15T08:12:32.190Z,99441.50
2019-03-15T08:16:37.407Z,99450.23
2019-03-15T08:20:42.635Z,99431.44
2019-03-15T08:24:51.682Z,99439.18
2019-03-15T08:28:56.681Z,99441.50
2019-03-15T08:33:10.476Z,99434.64
2019-03-15T08:37:18.584Z,99438.05
2019-03-15T08:41:23.780Z,99443.80
2019-03-15T08:45:29.392Z,99457.88
2019-03-15T08:49:34.584Z,99459.68
2019-03-15T08:53:39.746Z,99461.64
2019-03-15T08:57:44.847Z,99460.45
2019-03-15T09:01:50.014Z,99470.64
2019-03-15T09:05:55.169Z,99467.45
2019-03-15T09:10:03.255Z,99467.09
2019-03-15T09:14:07.223Z,99459.79
2019-03-15T09:18:12.486Z,99472.16
2019-03-15T09:22:17.920Z,99465.21
2019-03-15T09:26:23.100Z,99476.72
2019-03-15T09:30:28.569Z,99478.81
2019-03-15T09:34:33.763Z,99497.27
2019-03-15T09:38:39.938Z,99493.70
2019-03-15T09:42:45.153Z,99470.20
2019-03-15T09:46:50.335Z,99492.62
2019-03-15T09:50:56.320Z,99509.77
2019-03-15T09:55:01.572Z,99492.63
2019-03-15T09:59:09.117Z,99494.67
2019-03-15T10:03:22.223Z,99501.50
2019-03-15T10:07:21.211Z,99503.18
2019-03-15T10:11:26.485Z,99487.58
2019-03-15T10:15:31.660Z,99518.16
2019-03-15T10:19:36.857Z,99538.22
2019-03-15T10:23:42.003Z,99514.69
2019-03-15T10:27:47.132Z,99509.41
2019-03-15T10:31:53.320Z,99521.77
2019-03-15T10:35:58.428Z,99520.45
2019-03-15T10:40:05.792Z,99520.45
2019-03-15T10:44:10.902Z,99543.96
2019-03-15T10:48:24.990Z,99540.23
2019-03-15T10:52:26.006Z,99540.27
2019-03-15T10:56:31.394Z,99585.84
2019-03-15T11:00:36.656Z,99554.88
2019-03-15T11:04:43.842Z,99557.06
2019-03-15T11:08:49.082Z,99556.91
2019-03-15T11:12:54.182Z,99588.00
2019-03-15T11:16:59.386Z,99587.88
2019-03-15T11:21:04.488Z,99595.55
2019-03-15T11:25:09.665Z,99596.39
2019-03-15T11:29:15.078Z,99597.94
2019-03-15T11:33:20.284Z,99592.55
2019-03-15T11:37:25.842Z,99602.16
2019-03-15T11:41:30.994Z,99596.77
2019-03-15T11:45:36.301Z,99604.69
2019-03-15T11:49:41.629Z,99617.89
2019-03-15T11:53:46.761Z,99612.84
2019-03-15T11:57:53.765Z,99610.44
2019-03-15T12:02:03.902Z,99618.83
2019-03-15T12:06:05.738Z,99617.25
2019-03-15T12:10:10.980Z,99614.25
2019-03-15T12:14:17.103Z,99607.28
2019-03-15T12:18:23.276Z,99587.37
2019-03-15T12:22:29.389Z,99584.11
2019-03-15T12:26:40.197Z,99623.61
2019-03-15T12:30:42.998Z,99605.36
2019-03-15T12:34:48.442Z,99617.86
2019-03-15T12:38:53.566Z,99605.12
2019-03-15T12:42:58.689Z,99595.04
2019-03-15T12:47:06.236Z,99609.91
2019-03-15T12:51:12.535Z,99605.71
2019-03-15T12:55:17.951Z,99604.25
2019-03-15T12:59:24.193Z,99616.47
2019-03-15T13:03:29.330Z,99591.46
2019-03-15T13:07:34.585Z,99578.86
2019-03-15T13:11:39.782Z,99568.19
2019-03-15T13:15:44.974Z,99607.59
2019-03-15T13:19:55.103Z,99590.67
2019-03-15T13:23:57.000Z,99577.71
2019-03-15T13:28:03.310Z,99579.48
2019-03-15T13:32:08.531Z,99571.47
2019-03-15T13:36:13.674Z,99563.28
2019-03-15T13:40:18.853Z,99567.59
2019-03-15T13:44:26.250Z,99598.91
2019-03-15T13:48:30.906Z,99578.11
2019-03-15T13:52:39.113Z,99582.11
2019-03-15T13:56:44.515Z,99579.34
2019-03-15T14:00:49.760Z,99566.13
2019-03-15T14:04:54.887Z,99579.76
2019-03-15T14:09:00.019Z,99573.98
2019-03-15T14:13:05.204Z,99553.94
2019-03-15T14:17:10.496Z,99589.16
2019-03-15T14:21:15.696Z,99581.70
2019-03-15T14:25:20.816Z,99596.87
2019-03-15T14:29:26.045Z,99580.29
2019-03-15T14:33:31.171Z,99592.20
2019-03-15T14:37:36.428Z,99596.08
2019-03-15T14:41:41.581Z,99586.34
2019-03-15T14:45:46.897Z,99583.69
2019-03-15T14:49:52.079Z,99601.33
2019-03-15T14:53:57.231Z,99608.06
2019-03-15T14:58:02.467Z,99586.92
2019-03-15T15:02:07.652Z,99594.37
2019-03-15T15:06:12.764Z,99617.45
2019-03-15T15:10:18.042Z,99582.95
2019-03-15T15:14:23.252Z,99614.29
2019-03-15T15:18:28.365Z,99591.52
2019-03-15T15:22:34.541Z,99587.34
2019-03-15T15:26:39.687Z,99600.48
2019-03-15T15:30:47.186Z,99584.84
2019-03-15T15:34:56.112Z,99598.81
2019-03-15T15:39:01.369Z,99579.24
2019-03-15T15:43:07.992Z,99599.05
2019-03-15T15:47:13.248Z,99567.33
2019-03-15T15:51:19.453Z,99579.68
2019-03-15T15:55:24.651Z,99572.00
2019-03-15T15:59:29.912Z,99582.02
2019-03-15T16:03:35.036Z,99563.39
2019-03-15T16:07:40.391Z,99576.48
2019-03-15T16:11:45.813Z,99565.80
2019-03-15T16:15:50.971Z,99572.63
2019-03-15T16:19:56.131Z,99575.05
2019-03-15T16:24:01.265Z,99598.31
2019-03-15T16:28:06.409Z,99578.63
2019-03-15T16:32:11.582Z,99560.52
2019-03-15T16:36:17.013Z,99590.87
2019-03-15T16:40:22.110Z,99567.95
2019-03-15T16:44:27.343Z,99590.74
2019-03-15T16:48:32.568Z,99590.75
2019-03-15T16:52:37.853Z,99581.40
2019-03-15T16:56:43.086Z,99602.27
2019-03-15T17:00:48.247Z,99588.59
2019-03-15T17:04:53.489Z,99605.03
2019-03-15T17:08:58.635Z,99612.23
2019-03-15T17:13:04.114Z,99608.84
2019-03-15T17:17:09.259Z,99602.84
2019-03-15T17:21:14.451Z,99634.74
2019-03-15T17:25:19.664Z,99665.80
2019-03-15T17:29:24.844Z,99618.79
2019-03-15T17:33:30.013Z,99645.30
2019-03-15T17:37:35.136Z,99651.05
2019-03-15T17:41:40.607Z,99652.97
2019-03-15T17:45:47.445Z,99639.66
2019-03-15T17:49:52.587Z,99645.05
2019-03-15T17:53:57.772Z,99698.06
2019-03-15T17:58:02.917Z,99675.95
2019-03-15T18:02:08.179Z,99686.95
2019-03-15T18:06:14.295Z,99708.18
2019-03-15T18:10:19.424Z,99717.05
2019-03-15T18:14:24.608Z,99716.59
2019-03-15T18:18:29.862Z,99726.64
2019-03-15T18:22:35.061Z,99749.78
2019-03-15T18:26:40.215Z,99754.70
2019-03-15T18:30:45.337Z,99755.23
2019-03-15T18:34:50.531Z,99779.28
2019-03-15T18:38:56.080Z,99779.28
2019-03-15T18:43:01.240Z,99748.45
2019-03-15T18:47:06.383Z,99756.73
2019-03-15T18:51:11.485Z,99764.87
2019-03-15T18:55:16.644Z,99772.36
2019-03-15T18:59:21.783Z,99783.92
2019-03-15T19:03:27.107Z,99792.83
2019-03-15T19:07:32.511Z,99803.19
2019-03-15T19:11:37.631Z,99793.63
2019-03-15T19:15:45.833Z,99808.77
2019-03-15T19:19:51.173Z,99811.02
2019-03-15T19:23:56.339Z,99809.97
2019-03-15T19:28:01.570Z,99822.42
2019-03-15T19:32:06.697Z,99830.44
2019-03-15T19:36:11.910Z,99838.61
2019-03-15T19:40:17.237Z,99837.18
2019-03-15T19:44:23.384Z,99841.39
2019-03-15T19:48:28.567Z,99845.42
2019-03-15T19:52:34.073Z,99856.25
2019-03-15T19:56:39.211Z,99839.42
2019-03-15T20:00:44.344Z,99878.22
2019-03-15T20:04:49.547Z,99883.28
2019-03-15T20:08:54.946Z,99904.47
2019-03-15T20:13:02.631Z,99910.73
2019-03-15T20:17:08.095Z,99923.81
2019-03-15T20:21:14.045Z,99927.61
2019-03-15T20:25:19.478Z,99917.28
2019-03-15T20:29:24.998Z,99919.70
2019-03-15T20:33:30.896Z,99926.88
2019-03-15T20:37:36.270Z,99935.36
2019-03-15T20:41:41.493Z,99920.39
2019-03-15T20:45:46.634Z,99926.88
2019-03-15T20:49:51.779Z,99917.97
2019-03-15T20:53:56.894Z,99916.92
2019-03-15T20:58:02.307Z,99945.02
2019-03-15T21:02:07.779Z,99944.55
2019-03-15T21:06:13.055Z,99923.57
2019-03-15T21:10:18.295Z,99927.52
2019-03-15T21:14:23.561Z,99939.53
2019-03-15T21:18:28.913Z,99948.31
2019-03-15T21:22:35.407Z,99952.63
2019-03-15T21:26:40.506Z,99967.34
2019-03-15T21:30:48.600Z,99971.84
2019-03-15T21:34:52.535Z,99968.31
2019-03-15T21:38:57.688Z,99967.60
2019-03-15T21:43:02.883Z,99977.41
2019-03-15T21:47:08.002Z,99986.58
2019-03-15T21:51:14.644Z,99979.51
2019-03-15T21:55:19.775Z,99989.50
2019-03-15T21:59:24.964Z,99999.11
2019-03-15T22:03:30.087Z,99999.27
2019-03-15T22:07:35.599Z,100002.63
2019-03-15T22:11:40.832Z,100007.13
2019-03-15T22:15:45.955Z,100010.60
2019-03-15T22:19:51.106Z,100018.23
2019-03-15T22:23:56.230Z,100023.67
2019-03-15T22:28:01.344Z,100028.31
2019-03-15T22:32:06.547Z,100008.08
2019-03-15T22:36:11.658Z,100008.74
2019-03-15T22:40:17.766Z,100012.61
2019-03-15T22:44:22.922Z,100032.67
2019-03-15T22:48:28.099Z,100046.23
2019-03-15T22:52:34.247Z,100041.80
2019-03-15T22:56:39.715Z,100043.86
2019-03-15T23:00:45.326Z,100055.45
2019-03-15T23:04:52.149Z,100063.83
2019-03-15T23:08:57.279Z,100058.88
2019-03-15T23:13:02.441Z,100066.09
2019-03-15T23:17:07.562Z,100055.66
2019-03-15T23:21:12.710Z,100068.31
2019-03-15T23:25:17.809Z,100088.45
2019-03-15T23:29:22.967Z,100093.80
2019-03-15T23:33:28.084Z,100101.50
2019-03-15T23:37:33.202Z,100103.53
2019-03-15T23:41:38.373Z,100108.87
2019-03-15T23:45:45.616Z,100115.85
2019-03-15T23:49:50.817Z,100110.31
2019-03-15T23:53:56.898Z,100114.19
2019-03-15T23:58:02.092Z,100117.41
